Latest Coastal Weather Observations for Troughton Island

IDD60701

Issued at 10:51 pm CST Tuesday 21 May 2024 (issued every 10 minutes, with the page automatically refreshed every 10 minutes)

About coastal observations | Map of coastal stations | Coastal observations for NT | Marine services | Other Formats
Station Details ID: 001007 Name: TROUGHTON ISLAND Lat: -13.75 Lon: 126.15 Height: 6.0 m
Data from the previous 72 hours. | See also: Recent months at Troughton Island
Date/Time
CST
Wind Sea
Height
m
Swell Vis
km
Cloud Weather Temp
°C
Press
MSL
hPa
Rain since
9am
mm
Dir  Spd
kts
Gust
kts
Height
m
Period
s
Dir
21/10:30pm E 16 19 - - - - - - - 26.4 1014.5 0.0
21/10:00pm E 16 19 - - - - - - - 26.4 1014.4 0.0
21/09:30pm E 16 19 - - - - - - - 26.5 1014.1 0.0
21/09:00pm E 16 19 - - - - - - - 26.5 1013.7 0.0
21/08:30pm ENE 16 19 - - - - - - - 26.4 1013.4 0.0
21/08:00pm ENE 17 20 - - - - - - - 26.4 1013.0 0.0
21/07:30pm E 16 19 - - - - - - - 26.4 1012.6 0.0
21/07:00pm ENE 16 20 - - - - - - - 26.1 1012.4 0.0
21/06:30pm ENE 15 19 - - - - - - - 26.3 1012.3 0.0
21/06:00pm ENE 15 18 - - - - - - - 26.6 1012.0 0.0
21/05:30pm ENE 15 19 - - - - - - - 27.0 1011.8 0.0
21/05:00pm E 15 18 - - - - - - - 28.3 1011.6 0.0
21/04:30pm E 15 20 - - - - - - - 28.6 1011.5 0.0
21/04:00pm E 17 21 - - - - - - - 29.0 1011.4 0.0
21/03:30pm ESE 18 23 - - - - - - - 28.9 1011.4 0.0
21/03:00pm E 17 21 - - - - - - - 29.0 1011.9 0.0
21/02:30pm E 17 24 - - - - - - - 28.6 1012.3 0.0
21/02:00pm ESE 17 22 - - - - - - - 28.6 1012.7 0.0
21/01:30pm E 17 22 - - - - - - - 28.2 1013.2 0.0
21/01:00pm ESE 18 22 - - - - - - - 27.7 1013.4 0.0
21/12:30pm ESE 19 25 - - - - - - - 27.4 1013.8 0.0
21/12:00pm E 19 24 - - - - - - - 26.6 1014.3 0.0
21/11:30am ESE 21 27 - - - - - - - 26.2 1014.7 0.0
21/11:00am ESE 24 29 - - - - - - - 25.9 1014.9 0.0
21/10:30am ESE 23 27 - - - - - - - 25.4 1015.0 0.0
21/10:00am ESE 24 30 - - - - - - - 25.0 1015.2 0.0
21/09:30am ESE 25 31 - - - - - - - 24.8 1014.9 0.0
21/09:00am ESE 24 29 - - - - - - - 24.6 1014.8 0.0
21/08:30am ESE 26 31 - - - - - - - 24.1 1014.5 0.0
21/08:00am ESE 24 29 - - - - - - - 24.0 1014.6 0.0
21/07:30am ESE 23 29 - - - - - - - 23.7 1014.5 0.0
21/07:00am ESE 22 26 - - - - - - - 23.6 1014.4 0.0
21/06:30am ESE 23 27 - - - - - - - 23.9 1014.3 0.0
21/06:00am ESE 25 29 - - - - - - - 24.0 1014.0 0.0
21/05:30am ESE 24 29 - - - - - - - 24.4 1013.8 0.0
21/05:00am ESE 25 30 - - - - - - - 24.4 1013.9 0.0
21/04:30am ESE 23 29 - - - - - - - 24.8 1013.9 0.0
21/04:00am ESE 26 30 - - - - - - - 25.1 1014.0 0.0
21/03:30am ESE 25 31 - - - - - - - 25.3 1014.1 0.0
21/03:00am ESE 23 27 - - - - - - - 25.5 1014.4 0.0
21/02:30am ESE 21 26 - - - - - - - 25.5 1014.6 0.0
21/02:00am ESE 22 28 - - - - - - - 25.6 1014.5 0.0
21/01:30am ESE 21 27 - - - - - - - 25.8 1014.7 0.0
21/01:00am ESE 22 27 - - - - - - - 26.0 1014.8 0.0
21/12:30am ESE 22 26 - - - - - - - 26.1 1014.8 0.0
21/12:00am ESE 23 27 - - - - - - - 26.4 1014.9 0.0
 
Date/Time
CST
Wind Sea
Height
m
Swell Vis
km
Cloud Weather Temp
°C
Press
MSL
hPa
Rain since
9am
mm
Dir  Spd
kts
Gust
kts
Height
m
Period
s
Dir
20/11:30pm ESE 22 26 - - - - - - - 26.7 1015.1 0.0
20/11:00pm ESE 22 25 - - - - - - - 26.7 1015.1 0.0
20/10:30pm ESE 19 24 - - - - - - - 26.9 1015.1 0.0
20/10:00pm E 16 20 - - - - - - - 26.9 1014.9 0.0
20/09:30pm E 17 21 - - - - - - - 26.9 1014.7 0.0
20/09:00pm E 18 21 - - - - - - - 27.0 1014.3 0.0
20/08:30pm E 17 21 - - - - - - - 27.0 1013.9 0.0
20/08:00pm E 18 21 - - - - - - - 27.0 1013.6 0.0
20/07:30pm ENE 17 20 - - - - - - - 26.9 1013.2 0.0
20/07:00pm ENE 17 21 - - - - - - - 26.9 1012.9 0.0
20/06:30pm ENE 16 19 - - - - - - - 27.0 1012.8 0.0
20/06:00pm ENE 15 19 - - - - - - - 27.6 1012.4 0.0
20/05:30pm ENE 16 19 - - - - - - - 27.9 1011.9 0.0
20/05:00pm ENE 15 19 - - - - - - - 28.1 1011.6 0.0
20/04:30pm E 15 19 - - - - - - - 28.2 1011.6 0.0
20/04:00pm E 16 20 - - - - - - - 28.9 1011.6 0.0
20/03:30pm E 17 21 - - - - - - - 28.8 1011.8 0.0
20/03:00pm E 17 20 - - - - - - - 29.3 1011.7 0.0
20/02:30pm E 17 22 - - - - - - - 30.1 1012.0 0.0
20/02:00pm E 17 21 - - - - - - - 30.0 1012.3 0.0
20/01:30pm ESE 17 23 - - - - - - - 29.3 1012.6 0.0
20/01:00pm ESE 17 22 - - - - - - - 28.9 1013.1 0.0
20/12:30pm ESE 18 23 - - - - - - - 28.4 1013.7 0.0
20/12:00pm ESE 20 25 - - - - - - - 28.0 1014.0 0.0
20/11:30am ESE 21 26 - - - - - - - 27.0 1014.3 0.0
20/11:00am ESE 22 28 - - - - - - - 27.0 1014.7 0.0
20/10:30am ESE 23 29 - - - - - - - 27.0 1014.7 0.0
20/10:00am ESE 25 31 - - - - - - - 26.2 1014.7 0.0
20/09:30am ESE 27 33 - - - - - - - 26.0 1014.6 0.0
20/09:00am ESE 25 30 - - - - - - - 26.1 1014.3 0.0
20/08:30am ESE 27 33 - - - - - - - 25.7 1014.0 0.0
20/08:00am ESE 27 33 - - - - - - - 25.6 1013.6 0.0
20/07:30am ESE 27 33 - - - - - - - 25.5 1013.2 0.0
20/07:00am ESE 27 33 - - - - - - - 25.6 1012.7 0.0
20/06:30am ESE 25 32 - - - - - - - 25.7 1012.5 0.0
20/06:00am SE 24 29 - - - - - - - 25.8 1012.3 0.0
20/05:30am ESE 24 29 - - - - - - - 26.0 1012.1 0.0
20/05:00am ESE 23 30 - - - - - - - 26.3 1012.1 0.0
20/04:30am ESE 23 28 - - - - - - - 26.4 1012.2 0.0
20/04:00am ESE 22 27 - - - - - - - 26.4 1012.2 0.0
20/03:30am SE 20 26 - - - - - - - 26.6 1012.3 0.0
20/03:00am ESE 20 24 - - - - - - - 26.8 1012.3 0.0
20/02:30am ESE 18 22 - - - - - - - 26.8 1012.5 0.0
20/02:00am SE 15 19 - - - - - - - 26.7 1012.7 0.0
20/01:30am SE 15 19 - - - - - - - 26.7 1012.9 0.0
20/01:00am ESE 16 19 - - - - - - - 27.2 1013.1 0.0
20/12:30am ESE 15 19 - - - - - - - 27.4 1013.1 0.0
20/12:00am ESE 16 19 - - - - - - - 27.5 1013.2 0.0
 
Date/Time
CST
Wind Sea
Height
m
Swell Vis
km
Cloud Weather Temp
°C
Press
MSL
hPa
Rain since
9am
mm
Dir  Spd
kts
Gust
kts
Height
m
Period
s
Dir
19/11:30pm ESE 17 20 - - - - - - - 27.6 1013.1 0.0
19/11:00pm ESE 18 22 - - - - - - - 27.8 1013.3 0.0
19/10:30pm ESE 16 20 - - - - - - - 27.8 1013.3 0.0
19/10:00pm E 16 20 - - - - - - - 28.0 1013.3 0.0
19/09:30pm E 18 22 - - - - - - - 28.0 1013.1 0.0
19/09:00pm E 19 23 - - - - - - - 27.9 1012.9 0.0
19/08:30pm ENE 20 25 - - - - - - - 28.0 1012.4 0.0
19/08:00pm ENE 20 25 - - - - - - - 28.2 1012.0 0.0
19/07:30pm ENE 20 24 - - - - - - - 28.2 1011.6 0.0
19/07:00pm ENE 19 23 - - - - - - - 28.2 1011.3 0.0
19/06:30pm ENE 19 25 - - - - - - - 28.2 1010.9 0.0
19/06:00pm ENE 19 24 - - - - - - - 28.6 1010.7 0.0
19/05:30pm ENE 20 25 - - - - - - - 28.7 1010.4 0.0
19/05:00pm ENE 20 24 - - - - - - - 28.8 1010.4 0.0
19/04:30pm ENE 21 26 - - - - - - - 29.0 1010.3 0.0
19/04:00pm ENE 20 25 - - - - - - - 29.2 1010.4 0.0
19/03:30pm ENE 20 24 - - - - - - - 29.5 1010.6 0.0
19/03:00pm ENE 20 25 - - - - - - - 30.1 1010.7 0.0
19/02:30pm ENE 19 24 - - - - - - - 30.1 1011.1 0.0
19/02:00pm ENE 18 22 - - - - - - - 30.2 1011.4 0.0
19/01:30pm E 17 21 - - - - - - - 31.8 1011.7 0.0
19/01:00pm ESE 17 22 - - - - - - - 30.8 1012.2 0.0
19/12:30pm ESE 17 22 - - - - - - - 30.7 1012.6 0.0
19/12:00pm ESE 19 23 - - - - - - - 30.7 1013.1 0.0
19/11:30am ESE 18 23 - - - - - - - 30.1 1013.3 0.0
19/11:00am ESE 22 27 - - - - - - - 28.8 1013.7 0.0
19/10:30am ESE 23 29 - - - - - - - 28.7 1013.8 0.0
19/10:00am ESE 24 33 - - - - - - - 28.8 1013.8 0.0
19/09:30am ESE 24 29 - - - - - - - 28.4 1013.7 0.0
19/09:00am ESE 21 26 - - - - - - - 28.1 1013.4 0.0
19/08:30am ESE 23 29 - - - - - - - 27.7 1013.3 0.0
19/08:00am ESE 23 29 - - - - - - - 27.2 1013.0 0.0
19/07:30am ESE 24 28 - - - - - - - 27.0 1012.7 0.0
19/07:00am ESE 25 30 - - - - - - - 27.2 1012.2 0.0
19/06:30am ESE 23 27 - - - - - - - 27.2 1012.0 0.0
19/06:00am ESE 21 27 - - - - - - - 27.2 1011.8 0.0
19/05:30am ESE 21 26 - - - - - - - 27.4 1011.6 0.0
19/05:00am SE 19 24 - - - - - - - 27.3 1011.4 0.0
19/04:30am ESE 21 25 - - - - - - - 27.5 1011.4 0.0
19/04:00am ESE 18 23 - - - - - - - 27.5 1011.3 0.0
19/03:30am ESE 19 23 - - - - - - - 27.7 1011.5 0.0
19/03:00am SE 16 20 - - - - - - - 27.7 1011.8 0.0
19/02:30am SE 15 19 - - - - - - - 27.7 1011.9 0.0
19/02:00am SE 13 17 - - - - - - - 27.7 1012.2 0.0
19/01:30am SE 14 18 - - - - - - - 28.0 1012.5 0.0
19/01:00am SE 14 17 - - - - - - - 27.7 1012.6 0.0
19/12:30am SE 14 16 - - - - - - - 27.7 1012.8 0.0

Other formats

Comma delimited format used in spreadsheet applications
http://www.bom.gov.au/fwo/IDD60701/IDD60701.94102.axf

JavaScript Object Notation format (JSON) in row-major order
http://www.bom.gov.au/fwo/IDD60701/IDD60701.94102.json

Data quality

Most of these data are generated automatically and are frequently updated. Quality checks on data are not normally performed. It is possible for incorrect values to appear. Refer to information at About Latest Weather Observations and please check the disclaimer before using these data.